createdAt,value
2022-10-23T00:00:21.080Z,100
2022-10-23T00:01:21.047Z,100
2022-10-23T00:02:21.140Z,100
2022-10-23T00:03:21.074Z,100
2022-10-23T00:04:21.068Z,100
2022-10-23T00:05:21.028Z,100
2022-10-23T00:06:21.025Z,100
2022-10-23T00:07:21.099Z,100
2022-10-23T00:08:21.046Z,100
2022-10-23T00:09:21.035Z,100
2022-10-23T00:10:21.060Z,100
2022-10-23T00:11:21.037Z,100
2022-10-23T00:12:21.060Z,100
2022-10-23T00:13:21.038Z,100
2022-10-23T00:14:21.057Z,100
2022-10-23T00:15:21.028Z,100
2022-10-23T00:16:21.050Z,100
2022-10-23T00:17:21.207Z,100
2022-10-23T00:18:21.039Z,100
2022-10-23T00:19:21.033Z,100
2022-10-23T00:20:21.032Z,100
2022-10-23T00:21:21.036Z,100
2022-10-23T00:22:21.050Z,100
2022-10-23T00:23:21.030Z,100
2022-10-23T00:24:21.035Z,100
2022-10-23T00:25:21.040Z,100
2022-10-23T00:26:21.042Z,100
2022-10-23T00:27:21.080Z,100
2022-10-23T00:28:21.039Z,100
2022-10-23T00:29:21.190Z,100
2022-10-23T00:30:21.033Z,100
2022-10-23T00:31:21.032Z,100
2022-10-23T00:32:21.128Z,100
2022-10-23T00:33:21.028Z,100
2022-10-23T00:34:21.027Z,100
2022-10-23T00:35:21.032Z,100
2022-10-23T00:36:21.038Z,100
2022-10-23T00:37:21.065Z,100
2022-10-23T00:38:21.066Z,100
2022-10-23T00:39:21.043Z,100
2022-10-23T00:40:21.081Z,100
2022-10-23T00:41:21.068Z,100
2022-10-23T00:42:21.045Z,100
2022-10-23T00:43:21.038Z,100
2022-10-23T00:44:21.037Z,100
2022-10-23T00:45:21.028Z,100
2022-10-23T00:46:21.037Z,100
2022-10-23T00:47:21.073Z,100
2022-10-23T00:48:21.028Z,100
2022-10-23T00:49:21.046Z,100
2022-10-23T00:50:21.039Z,100
2022-10-23T00:51:21.107Z,100
2022-10-23T00:52:21.067Z,100
2022-10-23T00:53:21.042Z,100
2022-10-23T00:54:25.501Z,100
2022-10-23T00:55:21.050Z,100
2022-10-23T00:56:21.032Z,100
2022-10-23T00:57:21.086Z,100
2022-10-23T00:58:21.027Z,100
2022-10-23T00:59:21.066Z,100
2022-10-23T01:00:21.033Z,100
2022-10-23T01:01:21.132Z,100
2022-10-23T01:02:21.211Z,100
2022-10-23T01:03:21.142Z,100
2022-10-23T01:04:21.045Z,100
2022-10-23T01:05:21.057Z,100
2022-10-23T01:06:21.282Z,100
2022-10-23T01:07:21.070Z,100
2022-10-23T01:08:21.030Z,100
2022-10-23T01:09:21.048Z,100
2022-10-23T01:10:21.031Z,100
2022-10-23T01:11:21.038Z,100
2022-10-23T01:12:21.052Z,100
2022-10-23T01:13:21.030Z,100
2022-10-23T01:14:21.040Z,100
2022-10-23T01:15:21.050Z,100
2022-10-23T01:16:21.038Z,100
2022-10-23T01:17:21.134Z,100
2022-10-23T01:18:21.049Z,100
2022-10-23T01:19:21.050Z,100
2022-10-23T01:20:21.036Z,100
2022-10-23T01:21:21.037Z,100
2022-10-23T01:22:21.094Z,100
2022-10-23T01:23:21.037Z,100
2022-10-23T01:24:21.034Z,100
2022-10-23T01:25:21.032Z,100
2022-10-23T01:26:21.044Z,100
2022-10-23T01:27:21.071Z,100
2022-10-23T01:28:21.040Z,100
2022-10-23T01:29:21.153Z,100
2022-10-23T01:30:21.058Z,100
2022-10-23T01:31:21.038Z,100
2022-10-23T01:32:21.066Z,100
2022-10-23T01:33:21.044Z,100
2022-10-23T01:34:21.041Z,100
2022-10-23T01:35:21.043Z,100
2022-10-23T01:36:21.029Z,100
2022-10-23T01:37:21.057Z,100
2022-10-23T01:38:21.043Z,100
2022-10-23T01:39:21.059Z,100
2022-10-23T01:40:21.040Z,100
2022-10-23T01:41:21.047Z,100
2022-10-23T01:42:21.027Z,100
2022-10-23T01:43:21.033Z,100
2022-10-23T01:44:21.038Z,100
2022-10-23T01:45:21.041Z,100
2022-10-23T01:46:21.042Z,100
2022-10-23T01:48:21.037Z,100
2022-10-23T01:49:21.044Z,100
2022-10-23T01:50:21.056Z,100
2022-10-23T01:51:21.043Z,100
2022-10-23T01:52:21.061Z,100
2022-10-23T01:53:21.141Z,100
2022-10-23T01:54:21.043Z,100
2022-10-23T01:55:21.028Z,100
2022-10-23T01:56:21.025Z,100
2022-10-23T01:57:21.036Z,100
2022-10-23T01:58:21.034Z,100
2022-10-23T01:59:21.037Z,100
2022-10-23T02:00:21.040Z,100
2022-10-23T02:01:21.161Z,100
2022-10-23T02:02:21.101Z,100
2022-10-23T02:03:21.112Z,100
2022-10-23T02:04:21.040Z,100
2022-10-23T02:05:21.048Z,100
2022-10-23T02:06:21.038Z,100
2022-10-23T02:07:21.036Z,100
2022-10-23T02:08:21.048Z,100
2022-10-23T02:09:21.021Z,100
2022-10-23T02:10:21.326Z,100
2022-10-23T02:11:21.552Z,100
2022-10-23T02:12:21.968Z,100
2022-10-23T02:13:21.402Z,100
2022-10-23T02:14:21.666Z,100
2022-10-23T02:15:21.006Z,100
2022-10-23T02:16:21.498Z,100
2022-10-23T02:17:21.613Z,100
2022-10-23T02:18:20.945Z,100
2022-10-23T02:19:21.789Z,100
2022-10-23T02:20:22.137Z,100
2022-10-23T02:21:21.677Z,100
2022-10-23T02:22:21.290Z,100
2022-10-23T02:23:21.300Z,100
2022-10-23T02:24:21.042Z,100
2022-10-23T02:25:21.180Z,100
2022-10-23T02:26:21.053Z,100
2022-10-23T02:27:21.032Z,100
2022-10-23T02:28:21.033Z,100
2022-10-23T02:29:21.051Z,100
2022-10-23T02:30:21.174Z,100
2022-10-23T02:31:21.063Z,100
2022-10-23T02:32:21.032Z,100
2022-10-23T02:33:21.035Z,100
2022-10-23T02:34:21.027Z,100
2022-10-23T02:35:21.032Z,100
2022-10-23T02:36:21.053Z,100
2022-10-23T02:38:21.044Z,100
2022-10-23T02:39:21.041Z,100
2022-10-23T02:40:21.051Z,100
2022-10-23T02:41:21.054Z,100
2022-10-23T02:42:21.028Z,100
2022-10-23T02:43:21.025Z,100
2022-10-23T02:44:21.037Z,100
2022-10-23T02:45:21.034Z,100
2022-10-23T02:46:21.039Z,100
2022-10-23T02:47:21.034Z,100
2022-10-23T02:48:21.037Z,100
2022-10-23T02:49:21.048Z,100
2022-10-23T02:50:21.034Z,100
2022-10-23T02:51:21.031Z,100
2022-10-23T02:52:21.036Z,100
2022-10-23T02:53:21.042Z,100
2022-10-23T02:54:21.239Z,100
2022-10-23T02:55:21.034Z,100
2022-10-23T02:56:21.035Z,100
2022-10-23T02:57:21.027Z,100
2022-10-23T02:58:21.035Z,100
2022-10-23T02:59:21.036Z,100
2022-10-23T03:00:21.061Z,100
2022-10-23T03:01:21.080Z,100
2022-10-23T03:02:21.133Z,100
2022-10-23T03:03:21.047Z,100
2022-10-23T03:04:21.028Z,100
2022-10-23T03:05:21.069Z,100
2022-10-23T03:06:21.285Z,100
2022-10-23T03:07:21.036Z,100
2022-10-23T03:08:21.033Z,100
2022-10-23T03:09:21.045Z,100
2022-10-23T03:10:21.053Z,100
2022-10-23T03:11:21.097Z,100
2022-10-23T03:12:21.025Z,100
2022-10-23T03:13:21.047Z,100
2022-10-23T03:14:21.061Z,100
2022-10-23T03:15:21.067Z,100
2022-10-23T03:16:21.103Z,100
2022-10-23T03:17:21.060Z,100
2022-10-23T03:18:21.043Z,100
2022-10-23T03:19:21.033Z,100
2022-10-23T03:20:21.068Z,100
2022-10-23T03:21:21.037Z,100
2022-10-23T03:22:21.043Z,100
2022-10-23T03:23:21.026Z,100
2022-10-23T03:24:21.030Z,100
2022-10-23T03:25:21.071Z,100
2022-10-23T03:26:21.040Z,100
2022-10-23T03:27:21.083Z,100
2022-10-23T03:28:21.035Z,100
2022-10-23T03:29:21.049Z,100
2022-10-23T03:30:21.074Z,100
2022-10-23T03:31:21.043Z,100
2022-10-23T03:32:21.040Z,100
2022-10-23T03:33:21.027Z,100
2022-10-23T03:34:21.040Z,100
2022-10-23T03:35:21.051Z,100
2022-10-23T03:36:21.037Z,100
2022-10-23T03:37:21.061Z,100
2022-10-23T03:38:21.054Z,100
2022-10-23T03:39:21.056Z,100
2022-10-23T03:40:21.042Z,100
2022-10-23T03:41:21.049Z,100
2022-10-23T03:42:21.203Z,100
2022-10-23T03:43:21.028Z,100
2022-10-23T03:44:21.030Z,100
2022-10-23T03:45:21.036Z,100
2022-10-23T03:46:21.032Z,100
2022-10-23T03:47:21.046Z,100
2022-10-23T03:48:21.047Z,100
2022-10-23T03:49:21.039Z,100
2022-10-23T03:50:21.043Z,100
2022-10-23T03:51:21.052Z,100
2022-10-23T03:52:21.102Z,100
2022-10-23T03:53:21.057Z,100
2022-10-23T03:54:21.037Z,100
2022-10-23T03:55:21.030Z,100
2022-10-23T03:56:21.032Z,100
2022-10-23T03:57:21.037Z,100
2022-10-23T03:58:21.037Z,100
2022-10-23T03:59:21.046Z,100
2022-10-23T04:00:21.032Z,100
2022-10-23T04:01:21.076Z,100
2022-10-23T04:02:21.144Z,100
2022-10-23T04:03:21.063Z,100
2022-10-23T04:04:21.037Z,100
2022-10-23T04:05:21.040Z,100
2022-10-23T04:06:21.188Z,100
2022-10-23T04:07:21.034Z,100
2022-10-23T04:08:22.032Z,100
2022-10-23T04:09:21.032Z,100
2022-10-23T04:10:21.043Z,100
2022-10-23T04:11:21.043Z,100
2022-10-23T04:12:21.035Z,100
2022-10-23T04:13:21.033Z,100
2022-10-23T04:14:21.036Z,100
2022-10-23T04:15:21.046Z,100
2022-10-23T04:16:21.033Z,100
2022-10-23T04:17:21.076Z,100
2022-10-23T04:18:21.251Z,100
2022-10-23T04:19:21.029Z,100
2022-10-23T04:20:21.035Z,100
2022-10-23T04:21:21.030Z,100
2022-10-23T04:22:24.834Z,100
2022-10-23T04:23:21.039Z,100
2022-10-23T04:24:21.030Z,100
2022-10-23T04:25:21.050Z,100
2022-10-23T04:26:21.044Z,100
2022-10-23T04:27:21.052Z,100
2022-10-23T04:28:21.047Z,100
2022-10-23T04:29:21.032Z,100
2022-10-23T04:30:21.077Z,100
2022-10-23T04:31:21.040Z,100
2022-10-23T04:32:21.030Z,100
2022-10-23T04:33:21.037Z,100
2022-10-23T04:34:21.040Z,100
2022-10-23T04:35:21.059Z,100
2022-10-23T04:36:21.035Z,100
2022-10-23T04:37:21.036Z,100
2022-10-23T04:38:21.041Z,100
2022-10-23T04:39:21.019Z,100
2022-10-23T04:40:21.072Z,100
2022-10-23T04:41:21.153Z,100
2022-10-23T04:42:21.102Z,100
2022-10-23T04:43:21.038Z,100
2022-10-23T04:44:21.032Z,100
2022-10-23T04:45:21.063Z,100
2022-10-23T04:46:21.030Z,100
2022-10-23T04:47:21.035Z,100
2022-10-23T04:48:23.272Z,100
2022-10-23T04:49:21.018Z,100
2022-10-23T04:50:21.069Z,100
2022-10-23T04:51:21.044Z,100
2022-10-23T04:52:21.185Z,100
2022-10-23T04:53:21.056Z,100
2022-10-23T04:54:21.038Z,100
2022-10-23T04:55:21.052Z,100
2022-10-23T04:56:21.027Z,100
2022-10-23T04:57:21.062Z,100
2022-10-23T04:58:21.036Z,100
2022-10-23T04:59:21.028Z,100
2022-10-23T05:00:21.042Z,100
2022-10-23T05:01:21.144Z,100
2022-10-23T05:02:21.053Z,100
2022-10-23T05:03:21.043Z,100
2022-10-23T05:04:21.086Z,100
2022-10-23T05:05:21.039Z,100
2022-10-23T05:06:21.051Z,100
2022-10-23T05:08:21.033Z,100
2022-10-23T05:09:21.035Z,100
2022-10-23T05:10:21.044Z,100
2022-10-23T05:11:21.045Z,100
2022-10-23T05:12:21.054Z,100
2022-10-23T05:13:21.041Z,100
2022-10-23T05:14:24.035Z,100
2022-10-23T05:15:21.034Z,100
2022-10-23T05:16:21.184Z,100
2022-10-23T05:17:21.043Z,100
2022-10-23T05:18:21.090Z,100
2022-10-23T05:19:25.045Z,100
2022-10-23T05:20:21.031Z,100
2022-10-23T05:21:21.035Z,100
2022-10-23T05:22:21.032Z,100
2022-10-23T05:23:21.037Z,100
2022-10-23T05:24:21.037Z,100
2022-10-23T05:25:21.038Z,100
2022-10-23T05:26:21.025Z,100
2022-10-23T05:27:22.284Z,100
2022-10-23T05:28:21.850Z,100
2022-10-23T05:29:21.110Z,100
2022-10-23T05:30:21.056Z,100
2022-10-23T05:31:21.301Z,100
2022-10-23T05:33:21.632Z,100
2022-10-23T05:34:21.918Z,100
2022-10-23T05:35:22.175Z,100
2022-10-23T05:36:21.036Z,100
2022-10-23T05:37:21.261Z,100
2022-10-23T05:38:21.047Z,100
2022-10-23T05:39:21.335Z,100
2022-10-23T05:40:21.058Z,100
2022-10-23T05:41:21.042Z,100
2022-10-23T05:42:21.161Z,100
2022-10-23T05:43:21.038Z,100
2022-10-23T05:44:21.039Z,100
2022-10-23T05:45:21.058Z,100
2022-10-23T05:46:21.022Z,100
2022-10-23T05:47:21.040Z,100
2022-10-23T05:48:34.156Z,100
2022-10-23T05:49:21.042Z,100
2022-10-23T05:50:21.061Z,100
2022-10-23T05:51:21.157Z,100
2022-10-23T05:52:21.049Z,100
2022-10-23T05:53:21.042Z,100
2022-10-23T05:54:21.035Z,100
2022-10-23T05:55:21.061Z,100
2022-10-23T05:56:21.044Z,100
2022-10-23T05:57:21.060Z,100
2022-10-23T05:58:21.049Z,100
2022-10-23T05:59:24.044Z,100
2022-10-23T06:00:21.057Z,100
2022-10-23T06:01:21.063Z,100
2022-10-23T06:02:21.126Z,100
2022-10-23T06:03:21.043Z,100
2022-10-23T06:04:21.042Z,100
2022-10-23T06:05:21.079Z,100
2022-10-23T06:06:21.041Z,100
2022-10-23T06:07:21.041Z,100
2022-10-23T06:08:21.041Z,100
2022-10-23T06:09:21.034Z,100
2022-10-23T06:10:21.037Z,100
2022-10-23T06:11:21.062Z,100
2022-10-23T06:12:21.034Z,100
2022-10-23T06:13:21.036Z,100
2022-10-23T06:14:21.039Z,100
2022-10-23T06:15:21.029Z,100
2022-10-23T06:16:21.064Z,100
2022-10-23T06:17:21.135Z,100
2022-10-23T06:18:21.046Z,100
2022-10-23T06:19:21.023Z,100
2022-10-23T06:20:23.113Z,100
2022-10-23T06:21:21.035Z,100
2022-10-23T06:22:22.052Z,100
2022-10-23T06:23:21.033Z,100
2022-10-23T06:24:21.030Z,100
2022-10-23T06:25:21.054Z,100
2022-10-23T06:26:21.051Z,100
2022-10-23T06:27:21.106Z,100
2022-10-23T06:28:22.032Z,100
2022-10-23T06:29:21.055Z,100
2022-10-23T06:30:21.261Z,100
2022-10-23T06:31:21.039Z,100
2022-10-23T06:32:21.038Z,100
2022-10-23T06:33:21.037Z,100
2022-10-23T06:34:21.055Z,100
2022-10-23T06:35:21.038Z,100
2022-10-23T06:36:21.041Z,100
2022-10-23T06:37:21.046Z,100
2022-10-23T06:38:21.036Z,100
2022-10-23T06:39:21.045Z,100
2022-10-23T06:40:21.032Z,100
2022-10-23T06:41:21.119Z,100
2022-10-23T06:42:21.044Z,100
2022-10-23T06:43:21.023Z,100
2022-10-23T06:44:21.031Z,100
2022-10-23T06:45:21.028Z,100
2022-10-23T06:46:21.039Z,100
2022-10-23T06:47:21.041Z,100
2022-10-23T06:48:21.033Z,100
2022-10-23T06:49:21.042Z,100
2022-10-23T06:50:21.039Z,100
2022-10-23T06:51:21.034Z,100
2022-10-23T06:52:45.712Z,100
2022-10-23T06:53:21.072Z,100
2022-10-23T06:54:21.065Z,100
2022-10-23T06:55:21.039Z,100
2022-10-23T06:56:21.026Z,100
2022-10-23T06:57:21.022Z,100
2022-10-23T06:58:21.064Z,100
2022-10-23T06:59:21.032Z,100
2022-10-23T07:00:21.024Z,100
2022-10-23T07:01:21.154Z,100
2022-10-23T07:02:21.033Z,100
2022-10-23T07:03:21.046Z,100
2022-10-23T07:04:21.037Z,100
2022-10-23T07:05:21.058Z,100
2022-10-23T07:06:21.229Z,100
2022-10-23T07:07:21.038Z,100
2022-10-23T07:08:21.043Z,100
2022-10-23T07:09:21.036Z,100
2022-10-23T07:10:21.030Z,100
2022-10-23T07:11:21.033Z,100
2022-10-23T07:12:21.042Z,100
2022-10-23T07:13:21.038Z,100
2022-10-23T07:14:21.027Z,100
2022-10-23T07:15:21.131Z,100
2022-10-23T07:16:21.038Z,100
2022-10-23T07:17:21.040Z,100
2022-10-23T07:18:21.032Z,100
2022-10-23T07:19:21.032Z,100
2022-10-23T07:20:21.034Z,100
2022-10-23T07:21:21.040Z,100
2022-10-23T07:22:21.042Z,100
2022-10-23T07:23:21.054Z,100
2022-10-23T07:24:21.038Z,100
2022-10-23T07:25:21.053Z,100
2022-10-23T07:26:21.042Z,100
2022-10-23T07:27:21.028Z,100
2022-10-23T07:28:21.133Z,100
2022-10-23T07:29:21.058Z,100
2022-10-23T07:30:21.043Z,100
2022-10-23T07:31:25.630Z,100
2022-10-23T07:32:21.052Z,100
2022-10-23T07:33:21.202Z,100
2022-10-23T07:34:21.042Z,100
2022-10-23T07:35:21.030Z,100
2022-10-23T07:36:21.038Z,100
2022-10-23T07:37:21.047Z,100
2022-10-23T07:38:21.063Z,100
2022-10-23T07:39:21.044Z,100
2022-10-23T07:40:21.039Z,100
2022-10-23T07:41:21.040Z,100
2022-10-23T07:42:21.092Z,100
2022-10-23T07:43:21.181Z,100
2022-10-23T07:44:27.699Z,100
2022-10-23T07:45:21.031Z,100
2022-10-23T07:46:21.032Z,100
2022-10-23T07:47:21.042Z,100
2022-10-23T07:48:21.033Z,100
2022-10-23T07:49:21.036Z,100
2022-10-23T07:50:21.048Z,100
2022-10-23T07:51:21.047Z,100
2022-10-23T07:52:21.036Z,100
2022-10-23T07:53:21.120Z,100
2022-10-23T07:54:21.041Z,100
2022-10-23T07:55:21.043Z,100
2022-10-23T07:56:21.032Z,100
2022-10-23T07:57:21.034Z,100
2022-10-23T07:58:21.039Z,100
2022-10-23T07:59:21.038Z,100
2022-10-23T08:00:21.062Z,100
2022-10-23T08:01:21.083Z,100
2022-10-23T08:02:21.111Z,100
2022-10-23T08:03:21.050Z,100
2022-10-23T08:04:21.035Z,100
2022-10-23T08:05:21.043Z,100
2022-10-23T08:06:21.052Z,100
2022-10-23T08:07:21.046Z,100
2022-10-23T08:08:21.040Z,100
2022-10-23T08:09:21.034Z,100
2022-10-23T08:10:21.041Z,100
2022-10-23T08:11:21.034Z,100
2022-10-23T08:12:21.037Z,100
2022-10-23T08:13:21.029Z,100
2022-10-23T08:14:21.037Z,100
2022-10-23T08:15:21.038Z,100
2022-10-23T08:16:21.053Z,100
2022-10-23T08:17:22.205Z,100
2022-10-23T08:18:21.081Z,100
2022-10-23T08:19:21.050Z,100
2022-10-23T08:20:21.035Z,100
2022-10-23T08:21:21.035Z,100
2022-10-23T08:22:21.052Z,100
2022-10-23T08:23:21.023Z,100
2022-10-23T08:24:21.039Z,100
2022-10-23T08:25:27.099Z,100
2022-10-23T08:26:21.042Z,100
2022-10-23T08:27:21.034Z,100
2022-10-23T08:28:21.151Z,100
2022-10-23T08:29:21.053Z,100
2022-10-23T08:30:21.054Z,100
2022-10-23T08:31:21.335Z,100
2022-10-23T08:32:21.041Z,100
2022-10-23T08:33:21.054Z,100
2022-10-23T08:34:21.037Z,100
2022-10-23T08:35:21.153Z,100
2022-10-23T08:36:21.329Z,100
2022-10-23T08:37:21.656Z,100
2022-10-23T08:38:22.018Z,100
2022-10-23T08:39:21.487Z,100
2022-10-23T08:40:20.820Z,100
2022-10-23T08:41:22.173Z,100
2022-10-23T08:42:21.621Z,100
2022-10-23T08:43:22.894Z,100
2022-10-23T08:44:21.710Z,100
2022-10-23T08:45:21.393Z,100
2022-10-23T08:46:21.736Z,100
2022-10-23T08:47:21.044Z,100
2022-10-23T08:48:21.270Z,100
2022-10-23T08:49:21.031Z,100
2022-10-23T08:50:21.425Z,100
2022-10-23T08:51:21.050Z,100
2022-10-23T08:52:21.043Z,100
2022-10-23T08:53:21.056Z,100
2022-10-23T08:54:21.193Z,100
2022-10-23T08:55:21.072Z,100
2022-10-23T08:56:21.048Z,100
2022-10-23T08:57:21.040Z,100
2022-10-23T08:58:21.052Z,100
2022-10-23T08:59:21.032Z,100
2022-10-23T09:00:21.195Z,100
2022-10-23T09:01:21.177Z,100
2022-10-23T09:02:21.162Z,100
2022-10-23T09:03:21.051Z,100
2022-10-23T09:04:21.061Z,100
2022-10-23T09:05:21.063Z,100
2022-10-23T09:06:21.139Z,100
2022-10-23T09:07:21.050Z,100
2022-10-23T09:08:21.032Z,100
2022-10-23T09:09:21.034Z,99.89
2022-10-23T09:10:21.051Z,100
2022-10-23T09:11:21.053Z,99.39
2022-10-23T09:12:21.029Z,96.6
2022-10-23T09:13:21.091Z,95.75
2022-10-23T09:14:21.038Z,95.6
2022-10-23T09:15:21.037Z,96.86
2022-10-23T09:16:21.046Z,95.59
2022-10-23T09:17:21.043Z,93.85
2022-10-23T09:18:21.081Z,91.16
2022-10-23T09:19:21.140Z,88.17
2022-10-23T09:20:21.028Z,90.24
2022-10-23T09:21:21.056Z,92.07
2022-10-23T09:22:21.024Z,87.74
2022-10-23T09:23:21.032Z,86.16
2022-10-23T09:24:21.042Z,87.69
2022-10-23T09:25:21.044Z,84.02
2022-10-23T09:26:21.062Z,83.96
2022-10-23T09:27:21.056Z,85.31
2022-10-23T09:28:21.050Z,86.7
2022-10-23T09:29:21.039Z,83.91
2022-10-23T09:30:21.035Z,84.49
2022-10-23T09:31:21.097Z,83.07
2022-10-23T09:32:21.261Z,80.54
2022-10-23T09:33:21.046Z,79.27
2022-10-23T09:34:21.041Z,78.04
2022-10-23T09:35:21.041Z,78.83
2022-10-23T09:36:21.051Z,77.95
2022-10-23T09:37:24.037Z,74.86
2022-10-23T09:38:21.042Z,75.8
2022-10-23T09:39:21.047Z,76.41
2022-10-23T09:40:21.036Z,77.7
2022-10-23T09:41:21.038Z,77.21
2022-10-23T09:42:21.080Z,77.58
2022-10-23T09:43:21.045Z,78.27
2022-10-23T09:44:21.046Z,78.74
2022-10-23T09:45:21.044Z,78.27
2022-10-23T09:46:21.035Z,79.11
2022-10-23T09:47:21.050Z,77.33
2022-10-23T09:48:21.037Z,78.73
2022-10-23T09:49:21.032Z,80.58
2022-10-23T09:50:21.048Z,76.38
2022-10-23T09:51:21.054Z,77.58
2022-10-23T09:52:21.047Z,77.53
2022-10-23T09:53:21.051Z,73.96
2022-10-23T09:54:21.057Z,74.3
2022-10-23T09:55:21.048Z,75.08
2022-10-23T09:56:27.056Z,74.96
2022-10-23T09:57:21.224Z,76.51
2022-10-23T09:58:21.040Z,76.84
2022-10-23T09:59:21.048Z,75.6
2022-10-23T10:00:21.036Z,75.43
2022-10-23T10:01:21.127Z,74.88
2022-10-23T10:02:21.127Z,74.5
2022-10-23T10:03:21.047Z,75.1
2022-10-23T10:04:21.045Z,73.88
2022-10-23T10:05:21.084Z,75.1
2022-10-23T10:06:21.041Z,72.95
2022-10-23T10:07:21.107Z,72.97
2022-10-23T10:08:21.082Z,69.64
2022-10-23T10:09:21.041Z,67.8
2022-10-23T10:10:21.044Z,67.99
2022-10-23T10:11:21.032Z,69.4
2022-10-23T10:12:21.040Z,68.5
2022-10-23T10:13:21.051Z,67.24
2022-10-23T10:14:21.052Z,67.3
2022-10-23T10:15:21.048Z,69.45
2022-10-23T10:16:21.050Z,67.81
2022-10-23T10:17:21.063Z,67.67
2022-10-23T10:18:21.127Z,68.96
2022-10-23T10:19:21.051Z,69.89
2022-10-23T10:20:21.107Z,70.72
2022-10-23T10:21:21.053Z,72.44
2022-10-23T10:22:21.046Z,72.25
2022-10-23T10:23:21.045Z,71.24
2022-10-23T10:24:21.043Z,70.97
2022-10-23T10:25:21.059Z,71.87
2022-10-23T10:26:21.101Z,74.3
2022-10-23T10:27:21.037Z,72.74
2022-10-23T10:28:21.064Z,73.78
2022-10-23T10:29:21.049Z,74.96
2022-10-23T10:30:21.169Z,75.94
2022-10-23T10:31:21.053Z,74.81
2022-10-23T10:32:21.054Z,75.12
2022-10-23T10:33:21.184Z,74.36
2022-10-23T10:34:21.046Z,74.55
2022-10-23T10:35:21.036Z,74.29
2022-10-23T10:36:21.037Z,75.29
2022-10-23T10:37:21.029Z,74.48
2022-10-23T10:38:21.037Z,74.59
2022-10-23T10:39:21.049Z,72.58
2022-10-23T10:40:21.076Z,72.59
2022-10-23T10:41:21.056Z,73.48
2022-10-23T10:42:21.039Z,73.97
2022-10-23T10:43:21.032Z,75.14
2022-10-23T10:44:21.092Z,75.41
2022-10-23T10:45:21.025Z,74.67
2022-10-23T10:46:21.023Z,74.03
2022-10-23T10:47:24.063Z,74.11
2022-10-23T10:48:21.049Z,74.27
2022-10-23T10:49:21.051Z,73.91
2022-10-23T10:50:21.046Z,74.59
2022-10-23T10:51:21.034Z,74.45
2022-10-23T10:52:21.050Z,76.31
2022-10-23T10:53:21.066Z,75.1
2022-10-23T10:54:21.044Z,75.85
2022-10-23T10:55:21.050Z,75.01
2022-10-23T10:56:21.057Z,75.21
2022-10-23T10:57:21.040Z,75.99
2022-10-23T10:58:21.038Z,75.08
2022-10-23T10:59:21.038Z,74.55
2022-10-23T11:00:21.038Z,75.39
2022-10-23T11:01:21.137Z,74.09
2022-10-23T11:02:21.068Z,74.87
2022-10-23T11:03:21.043Z,75.61
2022-10-23T11:04:21.032Z,75.51
2022-10-23T11:05:21.054Z,76.61
2022-10-23T11:06:21.040Z,76.49
2022-10-23T11:07:21.034Z,75.89
2022-10-23T11:08:21.049Z,74.62
2022-10-23T11:09:22.110Z,74.58
2022-10-23T11:10:21.041Z,75
2022-10-23T11:11:21.046Z,75.46
2022-10-23T11:12:21.039Z,76.52
2022-10-23T11:13:21.043Z,76.84
2022-10-23T11:14:21.059Z,76.11
2022-10-23T11:15:21.024Z,76.64
2022-10-23T11:16:21.047Z,76.72
2022-10-23T11:17:21.045Z,76.72
2022-10-23T11:18:21.058Z,76.1
2022-10-23T11:19:21.045Z,76.62
2022-10-23T11:20:21.039Z,77.47
2022-10-23T11:21:21.235Z,77.97
2022-10-23T11:22:21.030Z,77.35
2022-10-23T11:23:21.044Z,77.22
2022-10-23T11:24:21.035Z,76.86
2022-10-23T11:25:21.042Z,75.37
2022-10-23T11:26:21.036Z,75.78
2022-10-23T11:27:21.046Z,74.91
2022-10-23T11:28:21.049Z,74.88
2022-10-23T11:29:21.052Z,76.01
2022-10-23T11:30:21.029Z,76.29
2022-10-23T11:31:21.045Z,75.98
2022-10-23T11:32:21.149Z,75.67
2022-10-23T11:33:21.048Z,76.14
2022-10-23T11:34:21.030Z,76.06
2022-10-23T11:35:21.047Z,77.33
2022-10-23T11:36:21.037Z,76.53
2022-10-23T11:37:21.042Z,75.35
2022-10-23T11:38:21.021Z,75.61
2022-10-23T11:39:21.037Z,75.8
2022-10-23T11:40:21.050Z,75.78
2022-10-23T11:41:27.151Z,76.27
2022-10-23T11:42:21.032Z,75.75
2022-10-23T11:43:21.042Z,77.6
2022-10-23T11:44:21.072Z,76.78
2022-10-23T11:45:21.054Z,76.53
2022-10-23T11:46:21.028Z,77.46
2022-10-23T11:47:21.049Z,77.09
2022-10-23T11:48:21.024Z,76.25
2022-10-23T11:49:21.237Z,75.77
2022-10-23T11:50:21.612Z,76.65
2022-10-23T11:51:21.891Z,76.74
2022-10-23T11:52:21.387Z,76.39
2022-10-23T11:53:21.967Z,75.83
2022-10-23T11:54:21.014Z,75.42
2022-10-23T11:55:21.212Z,75.2
2022-10-23T11:56:21.550Z,74.42
2022-10-23T11:57:22.044Z,74.42
2022-10-23T11:58:21.967Z,75.6
2022-10-23T11:59:22.249Z,73.68
2022-10-23T12:00:21.654Z,74.06
2022-10-23T12:01:21.716Z,73.81
2022-10-23T12:02:21.145Z,72.82
2022-10-23T12:03:21.255Z,74.19
2022-10-23T12:04:21.498Z,74.34
2022-10-23T12:05:21.047Z,75.28
2022-10-23T12:06:21.037Z,75.02
2022-10-23T12:07:21.116Z,74.62
2022-10-23T12:08:21.410Z,73.65
2022-10-23T12:09:21.039Z,75.01
2022-10-23T12:10:21.052Z,74.96
2022-10-23T12:11:26.749Z,73.54
2022-10-23T12:12:21.057Z,73.63
2022-10-23T12:13:21.029Z,74.26
2022-10-23T12:14:21.044Z,74
2022-10-23T12:15:21.049Z,74.33
2022-10-23T12:16:21.037Z,73.7
2022-10-23T12:17:21.066Z,74.43
2022-10-23T12:18:21.033Z,73.83
2022-10-23T12:19:21.059Z,73.99
2022-10-23T12:20:21.150Z,73.76
2022-10-23T12:21:21.163Z,72.77
2022-10-23T12:22:21.073Z,72.62
2022-10-23T12:23:21.045Z,73.54
2022-10-23T12:24:21.038Z,72.57
2022-10-23T12:25:21.039Z,72.64
2022-10-23T12:26:21.037Z,72.12
2022-10-23T12:27:21.040Z,71.66
2022-10-23T12:28:21.039Z,72.11
2022-10-23T12:29:21.043Z,73.19
2022-10-23T12:30:21.039Z,72.62
2022-10-23T12:31:21.041Z,72.97
2022-10-23T12:32:21.042Z,72.01
2022-10-23T12:33:21.167Z,72.94
2022-10-23T12:34:21.109Z,72.36
2022-10-23T12:35:21.061Z,73.15
2022-10-23T12:36:21.065Z,72.52
2022-10-23T12:37:21.031Z,73.28
2022-10-23T12:38:21.036Z,72.76
2022-10-23T12:39:21.035Z,70.86
2022-10-23T12:40:21.052Z,72.28
2022-10-23T12:41:21.070Z,72.04
2022-10-23T12:42:21.042Z,72.31
2022-10-23T12:43:21.050Z,72.99
2022-10-23T12:44:21.047Z,73.59
2022-10-23T12:45:21.045Z,72.89
2022-10-23T12:46:21.152Z,73.92
2022-10-23T12:47:21.043Z,74.9
2022-10-23T12:48:21.051Z,74.84
2022-10-23T12:49:21.062Z,75.8
2022-10-23T12:50:21.054Z,75.38
2022-10-23T12:51:21.045Z,76.38
2022-10-23T12:52:21.044Z,77.21
2022-10-23T12:53:21.025Z,77.51
2022-10-23T12:54:21.032Z,78.36
2022-10-23T12:55:21.087Z,77.41
2022-10-23T12:56:21.067Z,77.45
2022-10-23T12:57:21.069Z,79.01
2022-10-23T12:58:21.078Z,78
2022-10-23T12:59:21.053Z,78.24
2022-10-23T13:00:21.050Z,78.05
2022-10-23T13:01:21.081Z,77.96
2022-10-23T13:02:21.091Z,78.44
2022-10-23T13:03:21.022Z,78.76
2022-10-23T13:04:21.070Z,77.41
2022-10-23T13:05:21.064Z,77.92
2022-10-23T13:06:21.024Z,77.77
2022-10-23T13:07:21.045Z,77.53
2022-10-23T13:08:21.046Z,75.35
2022-10-23T13:09:21.118Z,74.88
2022-10-23T13:10:21.057Z,73.24
2022-10-23T13:11:21.164Z,72.66
2022-10-23T13:12:21.030Z,71.9
2022-10-23T13:13:21.044Z,71.9
2022-10-23T13:14:21.062Z,71.17
2022-10-23T13:15:21.055Z,69.95
2022-10-23T13:16:21.041Z,69.5
2022-10-23T13:17:21.032Z,69.02
2022-10-23T13:18:21.044Z,69.04
2022-10-23T13:19:21.063Z,68.45
2022-10-23T13:20:21.037Z,69.2
2022-10-23T13:21:21.040Z,68.85
2022-10-23T13:22:21.038Z,70.49
2022-10-23T13:23:21.258Z,67.73
2022-10-23T13:24:21.023Z,67.04
2022-10-23T13:25:21.044Z,67.55
2022-10-23T13:26:21.039Z,67.23
2022-10-23T13:27:21.036Z,68.11
2022-10-23T13:28:21.043Z,69.82
2022-10-23T13:29:21.127Z,69.83
2022-10-23T13:30:21.058Z,70.56
2022-10-23T13:31:21.041Z,71.58
2022-10-23T13:32:21.043Z,69.84
2022-10-23T13:33:21.033Z,68.96